createdAt,value
2018-09-28T00:01:37.892Z,4.85
2018-09-28T00:04:06.152Z,5.83
2018-09-28T00:06:34.405Z,5.60
2018-09-28T00:09:02.693Z,5.87
2018-09-28T00:11:30.939Z,6.20
2018-09-28T00:13:59.167Z,4.97
2018-09-28T00:16:27.408Z,4.92
2018-09-28T00:18:55.627Z,4.50
2018-09-28T00:21:23.839Z,4.67
2018-09-28T00:23:52.088Z,3.87
2018-09-28T00:26:20.325Z,3.43
2018-09-28T00:28:48.612Z,3.25
2018-09-28T00:31:16.928Z,2.87
2018-09-28T00:33:45.175Z,2.58
2018-09-28T00:36:13.407Z,2.43
2018-09-28T00:38:41.660Z,2.23
2018-09-28T00:41:09.907Z,1.60
2018-09-28T00:43:38.158Z,1.93
2018-09-28T00:46:06.440Z,2.47
2018-09-28T00:48:34.698Z,2.58
2018-09-28T00:51:02.924Z,2.53
2018-09-28T00:53:31.174Z,2.45
2018-09-28T00:55:59.388Z,2.07
2018-09-28T00:58:27.680Z,2.58
2018-09-28T01:00:55.959Z,2.40
2018-09-28T01:03:24.174Z,1.95
2018-09-28T01:05:52.399Z,2.77
2018-09-28T01:08:20.675Z,2.75
2018-09-28T01:10:48.972Z,3.17
2018-09-28T01:13:17.876Z,3.07
2018-09-28T01:15:46.169Z,2.87
2018-09-28T01:18:14.525Z,2.80
2018-09-28T01:20:42.770Z,3.00
2018-09-28T01:23:11.068Z,3.13
2018-09-28T01:25:39.360Z,3.27
2018-09-28T01:28:07.581Z,3.17
2018-09-28T01:30:35.879Z,3.40
2018-09-28T01:35:23.904Z,2.47
2018-09-28T01:37:52.171Z,2.85
2018-09-28T01:40:20.431Z,2.87
2018-09-28T01:42:48.757Z,3.10
2018-09-28T01:45:17.273Z,2.72
2018-09-28T01:47:45.578Z,3.47
2018-09-28T01:50:13.869Z,2.80
2018-09-28T01:52:42.162Z,3.08
2018-09-28T01:55:10.419Z,2.90
2018-09-28T01:57:38.631Z,2.60
2018-09-28T02:00:06.868Z,2.57
2018-09-28T02:02:35.108Z,3.40
2018-09-28T02:05:03.328Z,2.50
2018-09-28T02:07:31.556Z,3.05
2018-09-28T02:09:59.820Z,2.77
2018-09-28T02:12:28.055Z,3.00
2018-09-28T02:14:56.320Z,3.00
2018-09-28T02:17:24.582Z,2.47
2018-09-28T02:19:52.831Z,2.15
2018-09-28T02:22:21.055Z,3.33
2018-09-28T02:24:49.335Z,4.47
2018-09-28T02:27:17.593Z,2.73
2018-09-28T02:29:45.837Z,3.52
2018-09-28T02:32:14.147Z,2.97
2018-09-28T02:34:42.373Z,3.27
2018-09-28T02:37:10.595Z,3.20
2018-09-28T02:39:38.857Z,4.13
2018-09-28T02:42:07.069Z,3.42
2018-09-28T02:44:35.271Z,3.67
2018-09-28T02:47:03.523Z,4.50
2018-09-28T02:49:31.809Z,3.43
2018-09-28T02:52:00.030Z,3.27
2018-09-28T02:54:28.597Z,3.07
2018-09-28T02:56:56.903Z,3.63
2018-09-28T02:59:25.094Z,3.07
2018-09-28T03:01:53.311Z,3.40
2018-09-28T03:04:21.591Z,3.12
2018-09-28T03:06:49.864Z,3.20
2018-09-28T03:09:18.174Z,3.70
2018-09-28T03:11:46.462Z,4.00
2018-09-28T03:14:15.090Z,4.40
2018-09-28T03:16:43.397Z,3.30
2018-09-28T03:19:11.644Z,3.37
2018-09-28T03:21:39.867Z,3.53
2018-09-28T03:24:08.059Z,3.57
2018-09-28T03:26:36.300Z,2.90
2018-09-28T03:29:04.508Z,4.13
2018-09-28T03:31:32.751Z,3.87
2018-09-28T03:34:00.979Z,3.73
2018-09-28T03:36:29.816Z,3.60
2018-09-28T03:38:58.075Z,3.77
2018-09-28T03:41:26.324Z,4.27
2018-09-28T03:43:54.555Z,3.33
2018-09-28T03:46:23.894Z,4.13
2018-09-28T03:48:52.475Z,3.80
2018-09-28T03:51:21.685Z,4.07
2018-09-28T03:53:49.980Z,4.12
2018-09-28T03:56:19.525Z,3.47
2018-09-28T03:58:48.576Z,3.47
2018-09-28T04:01:17.098Z,3.17
2018-09-28T04:03:46.165Z,4.10
2018-09-28T04:06:14.574Z,3.50
2018-09-28T04:08:42.817Z,3.10
2018-09-28T04:11:11.082Z,4.00
2018-09-28T04:13:39.585Z,4.33
2018-09-28T04:16:07.885Z,5.03
2018-09-28T04:18:36.105Z,4.13
2018-09-28T04:21:04.369Z,3.53
2018-09-28T04:23:32.648Z,3.77
2018-09-28T04:26:00.900Z,3.53
2018-09-28T04:28:29.168Z,4.55
2018-09-28T04:30:57.416Z,4.83
2018-09-28T04:33:25.720Z,3.70
2018-09-28T04:35:53.971Z,4.87
2018-09-28T04:38:22.216Z,3.97
2018-09-28T04:40:51.402Z,3.83
2018-09-28T04:43:19.684Z,3.60
2018-09-28T04:45:47.973Z,4.13
2018-09-28T04:48:16.292Z,4.37
2018-09-28T04:50:44.552Z,4.10
2018-09-28T04:53:12.772Z,4.13
2018-09-28T04:55:41.024Z,4.83
2018-09-28T04:58:09.263Z,4.10
2018-09-28T05:00:37.569Z,3.57
2018-09-28T05:03:06.071Z,4.87
2018-09-28T05:05:34.295Z,3.50
2018-09-28T05:08:02.558Z,3.23
2018-09-28T05:10:30.785Z,4.10
2018-09-28T05:12:59.034Z,4.03
2018-09-28T05:15:27.233Z,3.73
2018-09-28T05:17:55.492Z,4.43
2018-09-28T05:20:23.708Z,3.87
2018-09-28T05:22:51.976Z,4.00
2018-09-28T05:25:20.358Z,4.07
2018-09-28T05:27:48.657Z,4.03
2018-09-28T05:30:17.004Z,3.73
2018-09-28T05:32:45.487Z,3.67
2018-09-28T05:35:13.645Z,3.93
2018-09-28T05:37:42.065Z,3.60
2018-09-28T05:40:10.356Z,5.08
2018-09-28T05:42:38.901Z,3.33
2018-09-28T05:45:07.692Z,3.93
2018-09-28T05:47:36.028Z,3.17
2018-09-28T05:50:04.397Z,3.90
2018-09-28T05:52:32.678Z,4.17
2018-09-28T05:55:00.926Z,4.13
2018-09-28T05:57:29.165Z,4.47
2018-09-28T06:00:02.691Z,3.90
2018-09-28T06:02:36.304Z,3.73
2018-09-28T06:05:10.085Z,4.40
2018-09-28T06:07:38.335Z,3.90
2018-09-28T06:10:06.551Z,4.27
2018-09-28T06:12:34.808Z,4.03
2018-09-28T06:15:03.691Z,4.53
2018-09-28T06:17:31.866Z,3.93
2018-09-28T06:20:00.656Z,3.53
2018-09-28T06:22:28.920Z,4.23
2018-09-28T06:24:57.180Z,3.35
2018-09-28T06:27:25.388Z,4.20
2018-09-28T06:29:53.619Z,3.42
2018-09-28T06:32:21.807Z,4.28
2018-09-28T06:34:50.039Z,4.05
2018-09-28T06:37:18.384Z,3.60
2018-09-28T06:39:46.675Z,3.40
2018-09-28T06:42:14.967Z,3.30
2018-09-28T06:44:43.212Z,4.47
2018-09-28T06:47:11.485Z,3.42
2018-09-28T06:49:39.820Z,3.58
2018-09-28T06:52:08.089Z,3.27
2018-09-28T06:54:36.357Z,3.92
2018-09-28T06:57:04.599Z,3.20
2018-09-28T06:59:32.868Z,3.95
2018-09-28T07:02:01.173Z,3.67
2018-09-28T07:04:29.449Z,3.33
2018-09-28T07:06:57.749Z,3.58
2018-09-28T07:09:26.019Z,2.85
2018-09-28T07:11:54.295Z,3.83
2018-09-28T07:14:22.504Z,3.45
2018-09-28T07:16:51.360Z,3.60
2018-09-28T07:19:19.597Z,3.27
2018-09-28T07:21:47.907Z,3.30
2018-09-28T07:24:16.290Z,3.37
2018-09-28T07:26:44.850Z,3.37
2018-09-28T07:29:13.136Z,4.33
2018-09-28T07:31:41.406Z,3.50
2018-09-28T07:34:09.640Z,3.80
2018-09-28T07:36:37.894Z,3.98
2018-09-28T07:39:09.011Z,3.60
2018-09-28T07:41:37.393Z,4.10
2018-09-28T07:44:05.628Z,3.85
2018-09-28T07:46:34.316Z,3.77
2018-09-28T07:49:02.703Z,3.50
2018-09-28T07:51:31.013Z,3.40
2018-09-28T07:53:59.393Z,3.47
2018-09-28T07:56:27.794Z,3.50
2018-09-28T07:58:56.012Z,3.10
2018-09-28T08:01:24.279Z,3.70
2018-09-28T08:03:52.546Z,3.37
2018-09-28T08:06:20.844Z,3.00
2018-09-28T08:08:49.132Z,3.00
2018-09-28T08:11:17.477Z,3.03
2018-09-28T08:13:45.880Z,3.20
2018-09-28T08:16:14.142Z,3.33
2018-09-28T08:18:42.352Z,3.20
2018-09-28T08:21:10.592Z,3.30
2018-09-28T08:23:38.856Z,3.43
2018-09-28T08:26:07.334Z,3.60
2018-09-28T08:28:35.568Z,3.10
2018-09-28T08:31:03.808Z,5.20
2018-09-28T08:33:32.016Z,3.00
2018-09-28T08:36:00.276Z,2.65
2018-09-28T08:38:28.529Z,2.93
2018-09-28T08:40:56.820Z,3.10
2018-09-28T08:43:25.140Z,3.10
2018-09-28T08:45:53.330Z,2.80
2018-09-28T08:48:21.670Z,3.67
2018-09-28T08:50:50.072Z,2.80
2018-09-28T08:53:18.375Z,2.77
2018-09-28T08:55:46.677Z,3.03
2018-09-28T08:58:14.921Z,3.55
2018-09-28T09:00:43.212Z,3.30
2018-09-28T09:03:11.756Z,2.90
2018-09-28T09:05:40.025Z,3.27
2018-09-28T09:08:08.500Z,3.20
2018-09-28T09:10:36.784Z,2.20
2018-09-28T09:13:05.030Z,2.60
2018-09-28T09:15:33.234Z,2.87
2018-09-28T09:18:01.527Z,3.00
2018-09-28T09:20:36.537Z,2.47
2018-09-28T09:23:04.781Z,2.65
2018-09-28T09:25:33.016Z,2.73
2018-09-28T09:28:01.250Z,3.05
2018-09-28T09:30:29.468Z,2.92
2018-09-28T09:32:57.745Z,2.63
2018-09-28T09:35:26.076Z,2.93
2018-09-28T09:37:54.359Z,2.87
2018-09-28T09:40:22.616Z,2.65
2018-09-28T09:42:50.908Z,2.37
2018-09-28T09:45:19.132Z,2.55
2018-09-28T09:47:47.435Z,2.70
2018-09-28T09:50:15.689Z,3.13
2018-09-28T09:52:43.997Z,1.85
2018-09-28T09:55:12.295Z,2.75
2018-09-28T09:57:40.580Z,2.10
2018-09-28T10:00:09.059Z,2.25
2018-09-28T10:02:42.741Z,1.45
2018-09-28T10:05:11.016Z,2.60
2018-09-28T10:07:39.431Z,2.37
2018-09-28T10:10:07.685Z,2.27
2018-09-28T10:12:36.146Z,2.30
2018-09-28T10:15:04.621Z,2.25
2018-09-28T10:17:32.933Z,2.60
2018-09-28T10:20:01.159Z,2.55
2018-09-28T10:22:29.365Z,2.47
2018-09-28T10:24:57.580Z,3.20
2018-09-28T10:27:25.866Z,2.90
2018-09-28T10:29:54.066Z,2.77
2018-09-28T10:32:22.309Z,2.50
2018-09-28T10:34:50.672Z,3.00
2018-09-28T10:37:18.884Z,2.72
2018-09-28T10:39:47.274Z,2.30
2018-09-28T10:42:15.555Z,2.67
2018-09-28T10:44:43.860Z,2.85
2018-09-28T10:47:12.085Z,2.40
2018-09-28T10:49:40.331Z,2.63
2018-09-28T10:52:08.992Z,2.90
2018-09-28T10:54:38.052Z,2.55
2018-09-28T10:57:06.573Z,2.45
2018-09-28T10:59:34.837Z,3.87
2018-09-28T11:02:03.125Z,2.58
2018-09-28T11:04:31.363Z,2.22
2018-09-28T11:06:59.888Z,2.90
2018-09-28T11:09:28.240Z,2.70
2018-09-28T11:11:56.463Z,2.75
2018-09-28T11:14:24.693Z,2.80
2018-09-28T11:16:52.936Z,2.53
2018-09-28T11:19:21.194Z,2.10
2018-09-28T11:21:49.581Z,2.40
2018-09-28T11:24:17.876Z,2.75
2018-09-28T11:26:47.152Z,2.70
2018-09-28T11:29:15.388Z,2.10
2018-09-28T11:31:43.707Z,2.70
2018-09-28T11:34:11.984Z,2.72
2018-09-28T11:36:40.525Z,2.55
2018-09-28T11:39:08.825Z,3.08
2018-09-28T11:41:37.036Z,2.02
2018-09-28T11:44:05.324Z,2.90
2018-09-28T11:46:33.564Z,2.75
2018-09-28T11:49:02.567Z,2.25
2018-09-28T11:51:30.897Z,2.37
2018-09-28T11:53:59.129Z,2.22
2018-09-28T11:56:27.398Z,2.27
2018-09-28T11:58:55.602Z,2.08
2018-09-28T12:01:23.843Z,2.12
2018-09-28T12:03:52.180Z,1.90
2018-09-28T12:06:20.483Z,2.70
2018-09-28T12:08:48.666Z,2.30
2018-09-28T12:11:16.952Z,2.20
2018-09-28T12:13:45.219Z,1.80
2018-09-28T12:16:13.509Z,2.83
2018-09-28T12:18:41.758Z,2.10
2018-09-28T12:21:09.998Z,2.05
2018-09-28T12:23:38.188Z,2.70
2018-09-28T12:26:06.488Z,2.27
2018-09-28T12:28:34.684Z,1.92
2018-09-28T12:31:02.960Z,2.42
2018-09-28T12:33:31.325Z,2.30
2018-09-28T12:35:59.544Z,1.82
2018-09-28T12:38:27.755Z,1.52
2018-09-28T12:40:56.014Z,2.00
2018-09-28T12:43:24.260Z,1.90
2018-09-28T12:45:52.544Z,2.00
2018-09-28T12:48:20.914Z,1.90
2018-09-28T12:50:49.254Z,2.30
2018-09-28T12:53:17.493Z,2.08
2018-09-28T12:55:45.830Z,1.42
2018-09-28T12:58:14.061Z,1.67
2018-09-28T13:00:42.395Z,2.10
2018-09-28T13:03:10.572Z,1.87
2018-09-28T13:05:38.877Z,2.20
2018-09-28T13:08:07.192Z,2.35
2018-09-28T13:10:35.490Z,2.42
2018-09-28T13:13:03.748Z,1.82
2018-09-28T13:15:31.988Z,2.00
2018-09-28T13:18:00.263Z,1.92
2018-09-28T13:20:28.519Z,2.20
2018-09-28T13:22:56.818Z,2.27
2018-09-28T13:25:25.086Z,2.35
2018-09-28T13:27:53.311Z,2.02
2018-09-28T13:30:21.610Z,2.20
2018-09-28T13:32:49.917Z,3.02
2018-09-28T13:35:18.193Z,2.92
2018-09-28T13:37:46.640Z,2.62
2018-09-28T13:40:14.949Z,3.37
2018-09-28T13:42:43.211Z,1.92
2018-09-28T13:45:11.571Z,2.87
2018-09-28T13:47:39.684Z,2.30
2018-09-28T13:50:07.964Z,2.60
2018-09-28T13:52:36.866Z,2.37
2018-09-28T13:55:05.340Z,2.70
2018-09-28T13:57:33.569Z,2.50
2018-09-28T14:00:01.902Z,2.45
2018-09-28T14:02:30.227Z,1.95
2018-09-28T14:04:58.484Z,1.92
2018-09-28T14:07:26.726Z,2.85
2018-09-28T14:09:54.967Z,2.00
2018-09-28T14:12:23.287Z,2.15
2018-09-28T14:14:52.080Z,2.12
2018-09-28T14:22:17.489Z,2.62
2018-09-28T14:24:46.167Z,2.52
2018-09-28T14:27:14.441Z,2.75
2018-09-28T14:29:42.660Z,2.72
2018-09-28T14:32:10.917Z,2.70
2018-09-28T14:34:39.711Z,2.10
2018-09-28T14:37:08.970Z,2.72
2018-09-28T14:39:37.251Z,2.35
2018-09-28T14:42:05.530Z,2.45
2018-09-28T14:44:33.792Z,2.40
2018-09-28T14:47:02.021Z,2.25
2018-09-28T14:49:30.559Z,2.60
2018-09-28T14:51:58.828Z,2.02
2018-09-28T14:54:27.150Z,2.10
2018-09-28T14:56:55.375Z,1.95
2018-09-28T14:59:23.644Z,2.27
2018-09-28T15:01:52.646Z,2.35
2018-09-28T15:04:21.070Z,3.10
2018-09-28T15:06:49.513Z,2.85
2018-09-28T15:09:18.369Z,2.67
2018-09-28T15:11:47.050Z,2.75
2018-09-28T15:14:15.387Z,2.55
2018-09-28T15:16:43.750Z,1.90
2018-09-28T15:19:12.025Z,2.35
2018-09-28T15:21:40.299Z,2.12
2018-09-28T15:24:08.578Z,2.30
2018-09-28T15:26:36.836Z,2.50
2018-09-28T15:29:05.140Z,2.25
2018-09-28T15:31:33.456Z,2.80
2018-09-28T15:34:01.715Z,2.67
2018-09-28T15:36:30.033Z,2.73
2018-09-28T15:38:58.340Z,2.70
2018-09-28T15:41:26.844Z,2.60
2018-09-28T15:43:55.329Z,2.53
2018-09-28T15:46:23.633Z,2.70
2018-09-28T15:48:51.903Z,2.87
2018-09-28T15:51:20.207Z,2.75
2018-09-28T15:53:48.596Z,2.77
2018-09-28T15:56:16.881Z,3.02
2018-09-28T15:58:45.165Z,2.33
2018-09-28T16:01:13.560Z,2.30
2018-09-28T16:03:41.889Z,3.00
2018-09-28T16:06:10.161Z,2.83
2018-09-28T16:08:38.411Z,2.37
2018-09-28T16:11:06.651Z,2.67
2018-09-28T16:13:35.440Z,2.50
2018-09-28T16:16:03.709Z,2.43
2018-09-28T16:18:32.000Z,3.07
2018-09-28T16:21:00.432Z,2.95
2018-09-28T16:23:28.674Z,2.60
2018-09-28T16:25:56.964Z,2.20
2018-09-28T16:28:25.236Z,2.30
2018-09-28T16:30:53.456Z,2.33
2018-09-28T16:33:21.731Z,2.57
2018-09-28T16:35:50.149Z,2.73
2018-09-28T16:38:18.411Z,3.07
2018-09-28T16:40:47.436Z,4.10
2018-09-28T16:43:15.791Z,3.57
2018-09-28T16:45:44.104Z,3.77
2018-09-28T16:48:12.443Z,4.10
2018-09-28T16:50:40.762Z,3.83
2018-09-28T16:53:09.014Z,3.40
2018-09-28T16:55:37.572Z,4.00
2018-09-28T16:58:05.831Z,4.70
2018-09-28T17:00:34.088Z,3.77
2018-09-28T17:03:02.317Z,3.33
2018-09-28T17:05:30.541Z,2.80
2018-09-28T17:07:58.811Z,3.30
2018-09-28T17:10:27.099Z,2.87
2018-09-28T17:12:55.394Z,5.60
2018-09-28T17:15:23.689Z,4.35
2018-09-28T17:17:51.980Z,4.27
2018-09-28T17:20:20.303Z,6.13
2018-09-28T17:22:48.768Z,6.00
2018-09-28T17:25:17.148Z,7.03
2018-09-28T17:27:46.067Z,4.57
2018-09-28T17:30:14.358Z,3.40
2018-09-28T17:32:42.591Z,3.73
2018-09-28T17:35:10.945Z,4.30
2018-09-28T17:37:39.188Z,4.00
2018-09-28T17:40:07.510Z,3.57
2018-09-28T17:42:35.792Z,2.90
2018-09-28T17:45:04.069Z,1.97
2018-09-28T17:47:32.348Z,2.20
2018-09-28T17:50:01.167Z,2.20
2018-09-28T17:52:29.622Z,2.60
2018-09-28T17:54:57.926Z,2.83
2018-09-28T17:57:26.258Z,3.03
2018-09-28T17:59:54.600Z,2.13
2018-09-28T18:02:22.938Z,2.70
2018-09-28T18:04:51.269Z,3.20
2018-09-28T18:07:19.600Z,3.60
2018-09-28T18:09:48.044Z,2.93
2018-09-28T18:12:16.509Z,3.53
2018-09-28T18:14:44.800Z,2.90
2018-09-28T18:17:13.315Z,2.95
2018-09-28T18:19:42.043Z,3.53
2018-09-28T18:22:10.404Z,3.30
2018-09-28T18:24:39.088Z,2.70
2018-09-28T18:27:07.814Z,3.37
2018-09-28T18:29:36.509Z,3.17
2018-09-28T18:32:04.945Z,2.70
2018-09-28T18:34:33.297Z,3.67
2018-09-28T18:37:01.621Z,3.10
2018-09-28T18:39:30.045Z,2.90
2018-09-28T18:41:58.436Z,2.67
2018-09-28T18:44:26.781Z,3.03
2018-09-28T18:46:55.201Z,4.80
2018-09-28T18:49:23.564Z,3.87
2018-09-28T18:51:52.193Z,5.07
2018-09-28T18:54:21.011Z,5.17
2018-09-28T18:56:49.689Z,4.35
2018-09-28T18:59:18.056Z,3.67
2018-09-28T19:01:47.700Z,5.37
2018-09-28T19:04:16.041Z,4.13
2018-09-28T19:06:44.477Z,3.53
2018-09-28T19:09:12.967Z,3.73
2018-09-28T19:11:42.049Z,2.67
2018-09-28T19:14:10.413Z,2.77
2018-09-28T19:16:38.796Z,3.10
2018-09-28T19:19:08.563Z,3.40
2018-09-28T19:21:36.909Z,3.27
2018-09-28T19:24:05.288Z,3.57
2018-09-28T19:26:33.627Z,2.93
2018-09-28T19:29:04.068Z,2.60
2018-09-28T19:31:32.862Z,3.33
2018-09-28T19:34:01.217Z,3.47
2018-09-28T19:36:30.192Z,3.00
2018-09-28T19:38:59.566Z,3.17
2018-09-28T19:41:28.047Z,3.90
2018-09-28T19:43:56.443Z,3.30
2018-09-28T19:46:25.741Z,3.60
2018-09-28T19:48:55.048Z,3.77
2018-09-28T19:51:23.378Z,3.13
2018-09-28T19:53:51.712Z,2.77
2018-09-28T19:56:20.011Z,2.97
2018-09-28T19:58:48.416Z,3.50
2018-09-28T20:01:16.870Z,3.67
2018-09-28T20:03:45.496Z,5.07
2018-09-28T20:06:14.229Z,4.53
2018-09-28T20:08:42.568Z,3.33
2018-09-28T20:11:11.600Z,3.50
2018-09-28T20:13:39.953Z,3.93
2018-09-28T20:16:08.639Z,2.97
2018-09-28T20:18:38.501Z,3.20
2018-09-28T20:21:07.140Z,3.13
2018-09-28T20:23:35.428Z,3.57
2018-09-28T20:26:03.731Z,3.17
2018-09-28T20:28:32.972Z,3.37
2018-09-28T20:31:01.260Z,3.80
2018-09-28T20:33:29.536Z,3.90
2018-09-28T20:35:57.887Z,3.43
2018-09-28T20:38:26.246Z,3.03
2018-09-28T20:40:55.144Z,3.43
2018-09-28T20:43:23.742Z,3.60
2018-09-28T20:45:52.119Z,3.90
2018-09-28T20:48:20.435Z,3.47
2018-09-28T20:50:48.793Z,4.33
2018-09-28T20:53:17.208Z,3.23
2018-09-28T20:55:45.619Z,2.80
2018-09-28T20:58:13.973Z,3.13
2018-09-28T21:00:42.314Z,3.10
2018-09-28T21:03:11.246Z,3.08
2018-09-28T21:05:39.595Z,6.23
2018-09-28T21:08:08.780Z,3.93
2018-09-28T21:10:37.170Z,4.47
2018-09-28T21:13:05.579Z,4.23
2018-09-28T21:15:33.933Z,3.77
2018-09-28T21:18:02.264Z,4.17
2018-09-28T21:20:30.598Z,3.47
2018-09-28T21:22:58.891Z,4.47
2018-09-28T21:25:27.169Z,3.65
2018-09-28T21:27:55.677Z,4.57
2018-09-28T21:30:24.521Z,4.12
2018-09-28T21:32:52.869Z,4.10
2018-09-28T21:35:21.192Z,3.53
2018-09-28T21:37:49.560Z,3.47
2018-09-28T21:40:17.865Z,3.27
2018-09-28T21:42:46.611Z,3.17
2018-09-28T21:45:14.967Z,3.73
2018-09-28T21:47:43.250Z,3.47
2018-09-28T21:50:11.545Z,3.53
2018-09-28T21:52:39.816Z,3.27
2018-09-28T21:55:08.221Z,3.37
2018-09-28T21:57:36.486Z,3.33
2018-09-28T22:00:05.864Z,3.20
2018-09-28T22:02:34.101Z,2.97
2018-09-28T22:05:02.325Z,3.07
2018-09-28T22:07:30.563Z,2.80
2018-09-28T22:09:58.812Z,3.30
2018-09-28T22:12:27.083Z,3.30
2018-09-28T22:14:55.293Z,3.33
2018-09-28T22:17:23.629Z,3.20
2018-09-28T22:19:51.910Z,2.90
2018-09-28T22:22:20.373Z,2.93
2018-09-28T22:24:48.680Z,2.70
2018-09-28T22:27:17.042Z,3.27
2018-09-28T22:29:45.310Z,3.22
2018-09-28T22:32:14.175Z,3.00
2018-09-28T22:34:42.446Z,2.97
2018-09-28T22:37:10.708Z,2.73
2018-09-28T22:39:38.985Z,3.13
2018-09-28T22:42:07.230Z,3.53
2018-09-28T22:44:35.495Z,3.40
2018-09-28T22:47:03.752Z,2.53
2018-09-28T22:49:31.991Z,2.77
2018-09-28T22:52:01.104Z,3.00
2018-09-28T22:54:29.996Z,2.90
2018-09-28T22:56:58.231Z,2.50
2018-09-28T22:59:26.530Z,2.90
2018-09-28T23:01:54.799Z,3.33
2018-09-28T23:04:23.055Z,3.13
2018-09-28T23:06:51.308Z,3.23
2018-09-28T23:09:19.624Z,3.07
2018-09-28T23:11:48.000Z,4.07
2018-09-28T23:14:16.276Z,3.80
2018-09-28T23:16:44.487Z,3.07
2018-09-28T23:19:12.724Z,3.70
2018-09-28T23:21:41.026Z,3.13
2018-09-28T23:24:09.286Z,3.20
2018-09-28T23:26:37.496Z,3.57
2018-09-28T23:29:05.803Z,2.67
2018-09-28T23:31:34.712Z,3.67
2018-09-28T23:34:09.364Z,3.97
2018-09-28T23:36:37.681Z,3.40
2018-09-28T23:39:07.109Z,3.77
2018-09-28T23:41:35.369Z,3.57
2018-09-28T23:44:03.604Z,3.63
2018-09-28T23:46:31.955Z,3.57
2018-09-28T23:49:00.192Z,3.73
2018-09-28T23:51:28.435Z,4.37
2018-09-28T23:53:57.612Z,3.07
2018-09-28T23:56:25.850Z,3.30
2018-09-28T23:58:54.105Z,2.77
